createdAt,value
2023-04-02T00:01:47.933Z,5.15
2023-04-02T00:04:22.152Z,4.82
2023-04-02T00:06:55.523Z,4.32
2023-04-02T00:09:27.698Z,5.07
2023-04-02T00:11:55.876Z,4.53
2023-04-02T00:14:26.048Z,4.53
2023-04-02T00:16:56.832Z,4.82
2023-04-02T00:19:29.446Z,5.40
2023-04-02T00:21:58.587Z,5.20
2023-04-02T00:24:26.101Z,4.55
2023-04-02T00:26:54.992Z,6.28
2023-04-02T00:29:22.861Z,6.43
2023-04-02T00:31:52.338Z,7.00
2023-04-02T00:34:24.581Z,7.07
2023-04-02T00:36:53.590Z,5.88
2023-04-02T00:39:23.717Z,6.93
2023-04-02T00:41:54.707Z,6.35
2023-04-02T00:44:23.710Z,6.32
2023-04-02T00:46:51.761Z,5.68
2023-04-02T00:49:24.957Z,5.10
2023-04-02T00:51:54.561Z,5.15
2023-04-02T00:54:25.801Z,5.80
2023-04-02T00:56:55.400Z,4.78
2023-04-02T00:59:27.924Z,5.03
2023-04-02T01:02:01.557Z,4.75
2023-04-02T01:04:34.565Z,5.00
2023-04-02T01:07:06.563Z,4.70
2023-04-02T01:12:21.222Z,4.60
2023-04-02T01:14:54.018Z,5.20
2023-04-02T01:17:33.427Z,4.72
2023-04-02T01:20:22.536Z,4.18
2023-04-02T01:22:56.346Z,4.88
2023-04-02T01:25:26.753Z,5.07
2023-04-02T01:27:59.529Z,4.78
2023-04-02T01:30:28.749Z,4.65
2023-04-02T01:32:56.319Z,3.90
2023-04-02T01:35:24.811Z,3.70
2023-04-02T01:37:56.168Z,3.83
2023-04-02T01:40:32.610Z,4.18
2023-04-02T01:43:07.583Z,4.20
2023-04-02T01:45:37.208Z,3.88
2023-04-02T01:48:07.032Z,3.25
2023-04-02T01:50:37.382Z,3.90
2023-04-02T01:53:07.208Z,3.88
2023-04-02T01:55:41.307Z,3.50
2023-04-02T01:58:11.331Z,3.92
2023-04-02T02:00:44.576Z,3.60
2023-04-02T02:03:13.617Z,3.40
2023-04-02T02:05:41.374Z,3.20
2023-04-02T02:08:20.775Z,3.38
2023-04-02T02:10:50.433Z,3.38
2023-04-02T02:13:18.077Z,4.20
2023-04-02T02:15:47.103Z,3.42
2023-04-02T02:18:15.082Z,3.58
2023-04-02T02:20:42.975Z,3.28
2023-04-02T02:23:11.717Z,3.22
2023-04-02T02:25:39.673Z,3.63
2023-04-02T02:28:09.172Z,4.15
2023-04-02T02:30:39.558Z,3.30
2023-04-02T02:33:15.409Z,3.38
2023-04-02T02:35:45.921Z,3.72
2023-04-02T02:38:44.836Z,3.78
2023-04-02T02:41:18.576Z,3.60
2023-04-02T02:43:53.221Z,3.38
2023-04-02T02:46:21.771Z,3.35
2023-04-02T02:48:51.902Z,4.03
2023-04-02T02:51:22.414Z,3.70
2023-04-02T02:53:52.336Z,3.30
2023-04-02T02:56:21.935Z,3.13
2023-04-02T02:58:51.929Z,3.22
2023-04-02T03:01:19.829Z,3.85
2023-04-02T03:03:48.229Z,3.45
2023-04-02T03:06:20.651Z,3.08
2023-04-02T03:08:53.284Z,3.28
2023-04-02T03:11:27.242Z,3.38
2023-04-02T03:14:00.059Z,3.33
2023-04-02T03:16:30.533Z,2.95
2023-04-02T03:19:03.937Z,2.42
2023-04-02T03:21:37.471Z,3.05
2023-04-02T03:24:10.532Z,2.63
2023-04-02T03:26:41.421Z,3.25
2023-04-02T03:29:15.542Z,3.13
2023-04-02T03:31:46.099Z,3.08
2023-04-02T03:34:18.612Z,2.70
2023-04-02T03:36:53.326Z,2.80
2023-04-02T03:39:24.139Z,3.15
2023-04-02T03:41:53.548Z,2.90
2023-04-02T03:44:25.579Z,2.88
2023-04-02T03:46:57.632Z,2.72
2023-04-02T03:49:29.168Z,2.80
2023-04-02T03:52:00.603Z,2.83
2023-04-02T03:54:28.791Z,2.60
2023-04-02T03:56:56.380Z,3.03
2023-04-02T03:59:29.697Z,2.40
2023-04-02T04:02:00.410Z,2.53
2023-04-02T04:04:29.395Z,2.70
2023-04-02T04:06:59.522Z,2.30
2023-04-02T04:09:31.101Z,2.25
2023-04-02T04:12:08.100Z,2.50
2023-04-02T04:14:38.428Z,2.92
2023-04-02T04:17:14.009Z,2.30
2023-04-02T04:19:45.791Z,2.65
2023-04-02T04:24:46.137Z,2.28
2023-04-02T04:27:20.513Z,2.60
2023-04-02T04:29:53.549Z,2.20
2023-04-02T04:32:27.694Z,2.60
2023-04-02T04:34:58.252Z,2.47
2023-04-02T04:37:33.565Z,3.05
2023-04-02T04:40:05.427Z,2.38
2023-04-02T04:45:07.980Z,2.40
2023-04-02T04:47:37.945Z,2.75
2023-04-02T04:50:09.897Z,2.25
2023-04-02T04:52:40.796Z,2.50
2023-04-02T04:55:26.455Z,2.63
2023-04-02T04:57:56.876Z,2.67
2023-04-02T05:00:30.743Z,2.58
2023-04-02T05:03:03.361Z,2.58
2023-04-02T05:05:32.740Z,2.40
2023-04-02T05:08:05.821Z,2.10
2023-04-02T05:10:38.572Z,2.08
2023-04-02T05:13:10.346Z,2.20
2023-04-02T05:18:17.592Z,2.47
2023-04-02T05:20:48.999Z,2.40
2023-04-02T05:23:21.112Z,2.47
2023-04-02T05:25:54.089Z,2.20
2023-04-02T05:28:27.525Z,2.55
2023-04-02T05:30:57.057Z,2.25
2023-04-02T05:33:27.122Z,2.75
2023-04-02T05:35:59.136Z,2.72
2023-04-02T05:38:29.466Z,2.58
2023-04-02T05:41:01.782Z,2.63
2023-04-02T05:43:31.796Z,2.80
2023-04-02T05:46:01.849Z,2.85
2023-04-02T05:48:33.682Z,2.90
2023-04-02T05:53:32.518Z,2.92
2023-04-02T05:56:04.572Z,2.08
2023-04-02T05:58:36.965Z,3.05
2023-04-02T06:01:22.209Z,2.60
2023-04-02T06:03:57.617Z,2.90
2023-04-02T06:06:42.588Z,2.60
2023-04-02T06:09:14.493Z,2.33
2023-04-02T06:11:45.648Z,2.33
2023-04-02T06:14:14.140Z,1.92
2023-04-02T06:16:42.263Z,2.30
2023-04-02T06:19:17.311Z,1.98
2023-04-02T06:21:46.049Z,2.30
2023-04-02T06:24:18.575Z,2.03
2023-04-02T06:26:48.264Z,2.30
2023-04-02T06:29:20.414Z,2.03
2023-04-02T06:31:51.269Z,2.05
2023-04-02T06:34:20.625Z,2.25
2023-04-02T06:36:50.087Z,2.22
2023-04-02T06:39:22.351Z,2.20
2023-04-02T06:41:56.866Z,2.10
2023-04-02T06:44:26.402Z,2.00
2023-04-02T06:46:55.976Z,1.88
2023-04-02T06:49:26.397Z,1.50
2023-04-02T06:51:55.659Z,2.05
2023-04-02T06:54:24.565Z,1.80
2023-04-02T06:56:53.329Z,2.20
2023-04-02T06:59:21.356Z,2.10
2023-04-02T07:01:52.122Z,1.73
2023-04-02T07:04:20.138Z,1.27
2023-04-02T07:06:48.125Z,1.50
2023-04-02T07:09:15.953Z,1.80
2023-04-02T07:11:46.069Z,2.05
2023-04-02T07:14:14.115Z,2.40
2023-04-02T07:16:42.752Z,1.83
2023-04-02T07:19:18.101Z,1.80
2023-04-02T07:21:46.171Z,1.80
2023-04-02T07:24:13.926Z,1.85
2023-04-02T07:26:41.875Z,2.00
2023-04-02T07:29:14.930Z,1.27
2023-04-02T07:31:42.480Z,1.83
2023-04-02T07:34:10.915Z,1.60
2023-04-02T07:36:38.540Z,1.48
2023-04-02T07:39:06.477Z,1.73
2023-04-02T07:41:33.924Z,1.70
2023-04-02T07:44:01.388Z,1.83
2023-04-02T07:46:30.382Z,1.55
2023-04-02T07:48:57.829Z,1.88
2023-04-02T07:51:27.275Z,1.40
2023-04-02T07:53:56.169Z,1.48
2023-04-02T07:56:25.448Z,2.08
2023-04-02T07:58:53.154Z,1.73
2023-04-02T08:01:24.036Z,1.60
2023-04-02T08:03:54.641Z,1.70
2023-04-02T08:06:22.734Z,1.17
2023-04-02T08:08:50.823Z,1.73
2023-04-02T08:11:18.428Z,1.83
2023-04-02T08:13:46.968Z,1.85
2023-04-02T08:16:14.628Z,1.42
2023-04-02T08:18:42.171Z,1.85
2023-04-02T08:21:12.649Z,1.70
2023-04-02T08:23:41.028Z,1.55
2023-04-02T08:26:08.652Z,1.88
2023-04-02T08:28:36.156Z,1.70
2023-04-02T08:31:04.716Z,1.80
2023-04-02T08:33:32.513Z,1.70
2023-04-02T08:36:00.044Z,1.63
2023-04-02T08:38:28.856Z,1.90
2023-04-02T08:40:59.675Z,1.98
2023-04-02T08:43:52.188Z,1.85
2023-04-02T08:46:25.802Z,1.73
2023-04-02T08:48:57.055Z,1.95
2023-04-02T08:51:26.338Z,2.05
2023-04-02T08:53:57.872Z,2.00
2023-04-02T08:56:30.552Z,1.80
2023-04-02T08:59:00.493Z,2.20
2023-04-02T09:01:35.158Z,1.80
2023-04-02T09:04:05.375Z,1.83
2023-04-02T09:06:34.688Z,1.70
2023-04-02T09:09:05.025Z,2.33
2023-04-02T09:11:37.152Z,2.35
2023-04-02T09:14:07.468Z,2.30
2023-04-02T09:16:43.611Z,2.40
2023-04-02T09:19:18.317Z,2.55
2023-04-02T09:21:49.502Z,2.17
2023-04-02T09:24:18.315Z,1.55
2023-04-02T09:26:47.254Z,1.80
2023-04-02T09:29:31.772Z,1.90
2023-04-02T09:32:05.302Z,1.80
2023-04-02T09:34:34.209Z,1.88
2023-04-02T09:37:08.827Z,1.80
2023-04-02T09:39:38.017Z,1.90
2023-04-02T09:42:09.286Z,2.03
2023-04-02T09:44:37.075Z,1.80
2023-04-02T09:47:06.537Z,1.50
2023-04-02T09:49:36.183Z,1.70
2023-04-02T09:52:10.225Z,1.88
2023-04-02T09:54:42.629Z,2.47
2023-04-02T09:57:27.293Z,1.98
2023-04-02T10:00:30.550Z,2.15
2023-04-02T10:03:06.177Z,2.20
2023-04-02T10:13:09.566Z,1.77
2023-04-02T10:15:40.484Z,2.15
2023-04-02T10:18:14.399Z,2.00
2023-04-02T10:20:51.017Z,2.20
2023-04-02T10:23:20.151Z,2.15
2023-04-02T10:25:51.938Z,2.10
2023-04-02T10:28:28.443Z,2.10
2023-04-02T10:30:59.116Z,2.40
2023-04-02T10:33:32.279Z,2.35
2023-04-02T10:36:07.175Z,1.85
2023-04-02T10:38:41.846Z,2.05
2023-04-02T10:41:18.865Z,1.83
2023-04-02T10:44:20.126Z,1.65
2023-04-02T10:46:54.758Z,1.85
2023-04-02T10:49:29.231Z,1.77
2023-04-02T10:52:00.686Z,1.77
2023-04-02T10:54:39.328Z,2.13
2023-04-02T10:57:12.562Z,1.60
2023-04-02T10:59:43.036Z,1.65
2023-04-02T11:02:33.939Z,2.40
2023-04-02T11:05:06.537Z,1.80
2023-04-02T11:07:43.637Z,1.83
2023-04-02T11:10:16.223Z,2.28
2023-04-02T11:12:49.773Z,1.38
2023-04-02T11:15:19.323Z,1.63
2023-04-02T11:17:47.473Z,1.70
2023-04-02T11:20:58.096Z,2.38
2023-04-02T11:23:29.310Z,2.03
2023-04-02T11:26:34.569Z,1.92
2023-04-02T11:29:07.675Z,1.10
2023-04-02T11:31:35.524Z,2.42
2023-04-02T11:34:03.043Z,2.10
2023-04-02T11:37:02.459Z,1.92
2023-04-02T11:39:53.533Z,1.73
2023-04-02T11:42:41.264Z,2.00
2023-04-02T11:45:57.656Z,1.75
2023-04-02T11:48:31.431Z,1.80
2023-04-02T11:50:59.351Z,1.67
2023-04-02T11:53:34.131Z,2.35
2023-04-02T11:56:10.623Z,2.20
2023-04-02T11:58:55.800Z,2.00
2023-04-02T12:01:35.117Z,2.15
2023-04-02T12:04:12.171Z,2.10
2023-04-02T12:06:53.205Z,1.63
2023-04-02T12:09:22.543Z,2.20
2023-04-02T12:11:52.080Z,2.20
2023-04-02T12:14:45.635Z,1.92
2023-04-02T12:17:26.980Z,2.05
2023-04-02T12:19:58.427Z,1.58
2023-04-02T12:22:27.784Z,1.67
2023-04-02T12:24:57.572Z,2.30
2023-04-02T12:27:27.881Z,2.00
2023-04-02T12:29:55.936Z,3.85
2023-04-02T12:32:29.787Z,2.08
2023-04-02T12:35:01.584Z,2.00
2023-04-02T12:37:30.810Z,2.15
2023-04-02T12:39:59.947Z,2.30
2023-04-02T12:42:29.264Z,2.97
2023-04-02T12:44:56.918Z,2.17
2023-04-02T12:47:24.723Z,2.38
2023-04-02T12:49:52.387Z,2.70
2023-04-02T12:52:22.873Z,1.80
2023-04-02T12:54:52.450Z,2.15
2023-04-02T12:57:37.132Z,2.40
2023-04-02T13:00:33.482Z,2.53
2023-04-02T13:03:17.569Z,2.08
2023-04-02T13:05:47.184Z,1.67
2023-04-02T13:08:19.849Z,1.83
2023-04-02T13:10:53.729Z,1.55
2023-04-02T13:13:30.186Z,1.92
2023-04-02T13:16:03.812Z,1.60
2023-04-02T13:18:32.050Z,2.25
2023-04-02T13:21:00.754Z,2.30
2023-04-02T13:23:36.097Z,1.75
2023-04-02T13:26:17.181Z,1.67
2023-04-02T13:28:44.943Z,2.87
2023-04-02T13:31:16.256Z,1.80
2023-04-02T13:33:43.761Z,1.63
2023-04-02T13:36:14.250Z,2.10
2023-04-02T13:38:43.097Z,2.15
2023-04-02T13:41:19.859Z,1.90
2023-04-02T13:43:47.361Z,1.48
2023-04-02T13:46:20.684Z,1.58
2023-04-02T13:48:48.234Z,1.77
2023-04-02T13:51:17.170Z,2.03
2023-04-02T13:53:47.078Z,1.85
2023-04-02T13:56:14.745Z,1.83
2023-04-02T13:58:42.352Z,2.47
2023-04-02T14:01:10.497Z,2.05
2023-04-02T14:03:38.524Z,1.40
2023-04-02T14:06:12.051Z,1.55
2023-04-02T14:08:51.607Z,1.45
2023-04-02T14:11:34.608Z,1.58
2023-04-02T14:14:19.088Z,1.35
2023-04-02T14:16:53.345Z,1.40
2023-04-02T14:19:32.282Z,1.42
2023-04-02T14:22:09.149Z,1.70
2023-04-02T14:24:42.325Z,1.63
2023-04-02T14:27:20.153Z,1.40
2023-04-02T14:29:49.418Z,1.50
2023-04-02T14:32:22.150Z,1.33
2023-04-02T14:34:54.233Z,1.55
2023-04-02T14:37:26.678Z,1.42
2023-04-02T14:40:04.182Z,1.83
2023-04-02T14:42:35.019Z,1.58
2023-04-02T14:45:06.480Z,1.50
2023-04-02T14:47:37.426Z,1.42
2023-04-02T14:50:12.495Z,1.77
2023-04-02T14:52:42.525Z,2.20
2023-04-02T14:55:14.733Z,1.42
2023-04-02T14:57:44.759Z,1.95
2023-04-02T15:00:25.440Z,1.30
2023-04-02T15:02:56.374Z,1.80
2023-04-02T15:05:29.517Z,1.90
2023-04-02T15:07:59.465Z,1.92
2023-04-02T15:10:30.978Z,2.47
2023-04-02T15:12:59.420Z,2.13
2023-04-02T15:15:40.955Z,1.70
2023-04-02T15:18:12.253Z,1.98
2023-04-02T15:20:45.809Z,1.63
2023-04-02T15:23:17.879Z,1.70
2023-04-02T15:25:49.097Z,1.60
2023-04-02T15:28:25.036Z,3.15
2023-04-02T15:30:57.073Z,3.50
2023-04-02T15:33:49.458Z,3.92
2023-04-02T15:36:33.084Z,3.08
2023-04-02T15:39:06.208Z,3.25
2023-04-02T15:41:40.505Z,5.28
2023-04-02T15:44:12.589Z,3.55
2023-04-02T15:46:46.806Z,6.10
2023-04-02T15:49:40.917Z,1.75
2023-04-02T15:52:11.899Z,4.70
2023-04-02T15:54:48.999Z,3.40
2023-04-02T15:57:29.980Z,2.72
2023-04-02T16:00:14.056Z,1.60
2023-04-02T16:02:59.747Z,1.27
2023-04-02T16:05:34.263Z,2.00
2023-04-02T16:08:17.924Z,2.72
2023-04-02T16:10:46.113Z,2.13
2023-04-02T16:13:19.858Z,3.17
2023-04-02T16:15:53.084Z,3.08
2023-04-02T16:18:28.535Z,3.55
2023-04-02T16:20:57.237Z,1.50
2023-04-02T16:23:29.606Z,1.80
2023-04-02T16:26:01.468Z,1.40
2023-04-02T16:31:03.663Z,1.60
2023-04-02T16:33:37.822Z,1.70
2023-04-02T16:36:18.022Z,1.63
2023-04-02T16:38:53.521Z,1.70
2023-04-02T16:41:29.265Z,2.10
2023-04-02T16:44:06.650Z,1.63
2023-04-02T16:46:40.778Z,1.33
2023-04-02T16:49:19.739Z,1.52
2023-04-02T16:51:54.800Z,1.67
2023-04-02T16:54:27.172Z,1.50
2023-04-02T16:57:04.772Z,1.80
2023-04-02T16:59:36.617Z,1.45
2023-04-02T17:04:50.362Z,1.88
2023-04-02T17:07:27.810Z,1.38
2023-04-02T17:10:03.871Z,1.75
2023-04-02T17:12:35.031Z,1.73
2023-04-02T17:15:17.263Z,1.10
2023-04-02T17:17:53.006Z,1.90
2023-04-02T17:20:23.330Z,1.38
2023-04-02T17:22:51.552Z,1.58
2023-04-02T17:25:25.519Z,2.15
2023-04-02T17:27:55.672Z,1.90
2023-04-02T17:30:35.380Z,1.85
2023-04-02T17:33:03.237Z,2.00
2023-04-02T17:35:34.414Z,1.73
2023-04-02T17:38:08.943Z,2.13
2023-04-02T17:40:42.028Z,1.90
2023-04-02T17:43:14.900Z,1.48
2023-04-02T17:45:48.608Z,1.73
2023-04-02T17:48:22.012Z,2.00
2023-04-02T17:50:55.611Z,3.80
2023-04-02T17:53:32.096Z,1.80
2023-04-02T17:56:11.206Z,2.47
2023-04-02T17:58:56.683Z,1.83
2023-04-02T18:01:30.015Z,1.70
2023-04-02T18:04:08.768Z,2.00
2023-04-02T18:06:40.955Z,1.80
2023-04-02T18:09:20.241Z,1.98
2023-04-02T18:11:54.805Z,2.78
2023-04-02T18:14:35.167Z,2.60
2023-04-02T18:17:10.345Z,1.63
2023-04-02T18:19:41.915Z,2.10
2023-04-02T18:22:14.130Z,1.63
2023-04-02T18:24:51.581Z,2.70
2023-04-02T18:27:36.792Z,1.67
2023-04-02T18:30:12.456Z,2.30
2023-04-02T18:32:52.394Z,2.05
2023-04-02T18:35:26.522Z,2.97
2023-04-02T18:38:04.514Z,2.05
2023-04-02T18:40:39.636Z,2.30
2023-04-02T18:43:18.961Z,1.77
2023-04-02T18:45:55.096Z,2.22
2023-04-02T18:48:32.064Z,2.05
2023-04-02T18:51:00.404Z,2.72
2023-04-02T18:53:30.636Z,2.47
2023-04-02T18:56:01.445Z,2.90
2023-04-02T18:58:32.491Z,2.35
2023-04-02T19:01:00.510Z,2.55
2023-04-02T19:03:32.706Z,3.05
2023-04-02T19:06:03.379Z,5.45
2023-04-02T19:08:34.485Z,2.50
2023-04-02T19:11:05.661Z,2.47
2023-04-02T19:13:33.306Z,2.38
2023-04-02T19:16:35.114Z,3.10
2023-04-02T19:19:11.398Z,2.33
2023-04-02T19:21:45.688Z,2.90
2023-04-02T19:24:28.377Z,2.67
2023-04-02T19:27:00.179Z,2.45
2023-04-02T19:32:02.972Z,2.90
2023-04-02T19:34:38.431Z,2.70
2023-04-02T19:37:12.542Z,6.80
2023-04-02T19:39:53.074Z,2.75
2023-04-02T19:42:31.040Z,2.95
2023-04-02T19:44:58.849Z,2.63
2023-04-02T19:47:26.505Z,3.47
2023-04-02T19:49:55.853Z,2.50
2023-04-02T19:52:23.427Z,2.38
2023-04-02T19:54:51.028Z,2.50
2023-04-02T19:57:19.134Z,2.60
2023-04-02T19:59:46.641Z,2.75
2023-04-02T20:02:14.441Z,2.83
2023-04-02T20:04:42.520Z,3.70
2023-04-02T20:07:11.425Z,2.88
2023-04-02T20:09:38.927Z,3.63
2023-04-02T20:12:07.060Z,2.70
2023-04-02T20:14:34.808Z,2.95
2023-04-02T20:17:02.448Z,2.13
2023-04-02T20:19:30.608Z,2.80
2023-04-02T20:22:00.533Z,2.42
2023-04-02T20:24:29.840Z,2.55
2023-04-02T20:26:57.374Z,2.55
2023-04-02T20:29:28.034Z,2.53
2023-04-02T20:31:55.554Z,2.58
2023-04-02T20:34:23.201Z,3.10
2023-04-02T20:36:50.935Z,2.97
2023-04-02T20:39:19.492Z,2.42
2023-04-02T20:41:48.724Z,2.92
2023-04-02T20:44:16.215Z,3.35
2023-04-02T20:46:44.185Z,2.45
2023-04-02T20:49:12.149Z,2.50
2023-04-02T20:51:39.846Z,2.08
2023-04-02T20:54:07.299Z,2.55
2023-04-02T20:56:34.888Z,1.90
2023-04-02T20:59:03.763Z,1.90
2023-04-02T21:01:31.736Z,2.08
2023-04-02T21:04:00.407Z,1.92
2023-04-02T21:06:29.707Z,2.70
2023-04-02T21:08:57.727Z,2.13
2023-04-02T21:11:26.270Z,2.45
2023-04-02T21:13:53.864Z,3.28
2023-04-02T21:16:24.498Z,1.90
2023-04-02T21:18:53.398Z,2.20
2023-04-02T21:21:22.073Z,2.30
2023-04-02T21:23:55.029Z,2.03
2023-04-02T21:26:23.047Z,2.38
2023-04-02T21:28:50.638Z,2.55
2023-04-02T21:31:19.366Z,1.98
2023-04-02T21:33:49.726Z,2.15
2023-04-02T21:36:18.825Z,1.98
2023-04-02T21:38:47.662Z,1.90
2023-04-02T21:41:17.170Z,2.50
2023-04-02T21:43:46.044Z,2.50
2023-04-02T21:46:13.590Z,1.70
2023-04-02T21:48:41.842Z,2.28
2023-04-02T21:51:12.720Z,2.90
2023-04-02T21:53:40.709Z,1.90
2023-04-02T21:56:10.699Z,1.90
2023-04-02T21:58:38.330Z,2.25
2023-04-02T22:01:11.096Z,2.42
2023-04-02T22:03:39.081Z,2.38
2023-04-02T22:06:08.564Z,2.47
2023-04-02T22:08:38.761Z,2.72
2023-04-02T22:11:07.813Z,2.20
2023-04-02T22:13:35.662Z,1.98
2023-04-02T22:16:05.667Z,2.75
2023-04-02T22:18:34.714Z,2.30
2023-04-02T22:21:02.645Z,2.20
2023-04-02T22:23:30.566Z,2.50
2023-04-02T22:26:00.875Z,2.25
2023-04-02T22:28:30.061Z,2.47
2023-04-02T22:31:03.539Z,1.88
2023-04-02T22:33:32.320Z,2.10
2023-04-02T22:36:01.244Z,2.35
2023-04-02T22:38:28.999Z,1.90
2023-04-02T22:41:06.683Z,2.10
2023-04-02T22:43:34.785Z,2.10
2023-04-02T22:46:02.673Z,2.15
2023-04-02T22:48:30.286Z,1.95
2023-04-02T22:50:57.790Z,2.55
2023-04-02T22:53:25.548Z,2.13
2023-04-02T22:55:53.387Z,2.10
2023-04-02T22:58:22.766Z,2.47
2023-04-02T23:00:50.420Z,2.15
2023-04-02T23:03:17.939Z,2.35
2023-04-02T23:05:47.069Z,2.05
2023-04-02T23:08:14.565Z,2.75
2023-04-02T23:10:42.070Z,2.50
2023-04-02T23:13:09.589Z,2.30
2023-04-02T23:15:38.380Z,2.05
2023-04-02T23:18:06.178Z,2.45
2023-04-02T23:20:33.726Z,2.38
2023-04-02T23:23:01.221Z,2.53
2023-04-02T23:25:28.851Z,2.05
2023-04-02T23:27:56.338Z,2.20
2023-04-02T23:30:23.881Z,2.35
2023-04-02T23:32:52.748Z,2.55
2023-04-02T23:35:20.283Z,2.17
2023-04-02T23:37:49.531Z,2.40
2023-04-02T23:40:17.245Z,2.22
2023-04-02T23:42:44.742Z,2.35
2023-04-02T23:45:12.553Z,2.45
2023-04-02T23:47:40.135Z,2.45
2023-04-02T23:50:09.976Z,1.63
2023-04-02T23:52:37.455Z,2.13
2023-04-02T23:55:05.341Z,1.88
2023-04-02T23:57:32.898Z,2.65
